Time,TemperatureF,DewpointF,PressureIn,WindDirection,WindDirectionDegrees,WindSpeedMPH,WindSpeedGustMPH,Humidity,HourlyPrecipIn,Conditions,Clouds,dailyrainin,SoftwareType,DateUTC
2013-02-19 00:02:00,11.1,-4.8,22.48,NNW,330,0.0,21.0,48,0.00,,,0.00,Wunderground v.1.15,2013-02-19 07:02:00,
2013-02-19 00:04:00,11.0,-4.9,22.48,North,1,1.0,21.0,48,0.00,,,0.00,Wunderground v.1.15,2013-02-19 07:04:00,
2013-02-19 00:08:00,10.9,-5.0,22.48,SSW,210,1.0,21.0,48,0.00,,,0.00,Wunderground v.1.15,2013-02-19 07:08:00,
2013-02-19 00:10:00,10.8,-5.1,22.48,WSW,240,1.0,21.0,48,0.00,,,0.00,Wunderground v.1.15,2013-02-19 07:10:00,
2013-02-19 00:11:00,10.6,-5.3,22.48,WSW,240,1.0,21.0,48,0.00,,,0.00,Wunderground v.1.15,2013-02-19 07:11:00,
2013-02-19 00:16:00,10.2,-5.2,22.48,NNW,343,1.0,21.0,49,0.00,,,0.00,Wunderground v.1.15,2013-02-19 07:16:00,
2013-02-19 00:22:00,9.9,-5.5,22.48,ENE,70,1.0,21.0,49,0.00,,,0.00,Wunderground v.1.15,2013-02-19 07:22:00,
2013-02-19 00:24:00,9.8,-5.6,22.48,NNW,343,1.0,21.0,49,0.00,,,0.00,Wunderground v.1.15,2013-02-19 07:24:00,
2013-02-19 00:30:00,9.5,-5.4,22.48,NE,53,2.0,21.0,50,0.00,,,0.00,Wunderground v.1.15,2013-02-19 07:30:00,
2013-02-19 00:32:00,9.6,-5.3,22.48,SW,225,2.0,21.0,50,0.00,,,0.00,Wunderground v.1.15,2013-02-19 07:32:00,
2013-02-19 00:36:00,9.2,-5.7,22.48,NNE,26,2.0,21.0,50,0.00,,,0.00,Wunderground v.1.15,2013-02-19 07:36:00,
2013-02-19 00:38:00,9.2,-5.3,22.48,NNW,330,2.0,21.0,51,0.00,,,0.00,Wunderground v.1.15,2013-02-19 07:38:00,
2013-02-19 00:40:00,9.3,-5.2,22.48,WSW,242,2.0,21.0,51,0.00,,,0.00,Wunderground v.1.15,2013-02-19 07:40:00,
2013-02-19 00:45:00,9.0,-5.5,22.48,East,88,1.0,21.0,51,0.00,,,0.00,Wunderground v.1.15,2013-02-19 07:45:00,
2013-02-19 00:49:00,8.8,-5.7,22.48,North,355,0.0,21.0,51,0.00,,,0.00,Wunderground v.1.15,2013-02-19 07:49:00,
2013-02-19 00:52:00,8.7,-5.8,22.48,WNW,303,0.0,21.0,51,0.00,,,0.00,Wunderground v.1.15,2013-02-19 07:52:00,
2013-02-19 00:58:00,8.3,-5.3,22.48,SW,235,1.0,21.0,53,0.00,,,0.00,Wunderground v.1.15,2013-02-19 07:58:00,
2013-02-19 01:00:00,8.2,-5.0,22.48,NNW,347,1.0,21.0,54,0.00,,,0.00,Wunderground v.1.15,2013-02-19 08:00:00,
2013-02-19 01:03:00,8.9,-2.5,22.48,East,84,2.0,21.0,59,0.00,,,0.00,Wunderground v.1.15,2013-02-19 08:03:00,
2013-02-19 01:07:00,9.4,-2.8,22.48,South,174,1.0,21.0,57,0.00,,,0.00,Wunderground v.1.15,2013-02-19 08:07:00,
2013-02-19 01:09:00,9.4,-2.4,22.48,West,262,1.0,21.0,58,0.00,,,0.00,Wunderground v.1.15,2013-02-19 08:09:00,
2013-02-19 01:14:00,9.4,-2.8,22.48,SSW,200,1.0,21.0,57,0.00,,,0.00,Wunderground v.1.15,2013-02-19 08:14:00,
2013-02-19 01:16:00,9.3,-3.3,22.48,East,85,1.0,1.0,56,0.00,,,0.00,Wunderground v.1.15,2013-02-19 08:16:00,
2013-02-19 01:18:00,9.2,-2.6,22.48,NNW,344,1.0,21.0,58,0.00,,,0.00,Wunderground v.1.15,2013-02-19 08:18:00,
2013-02-19 01:22:00,9.1,-2.7,22.48,North,349,1.0,21.0,58,0.00,,,0.00,Wunderground v.1.15,2013-02-19 08:22:00,
2013-02-19 01:24:00,9.0,-3.2,22.48,NNW,334,1.0,21.0,57,0.00,,,0.00,Wunderground v.1.15,2013-02-19 08:24:00,
2013-02-19 01:28:00,8.7,-3.4,22.48,NNE,27,1.0,21.0,57,0.00,,,0.00,Wunderground v.1.15,2013-02-19 08:28:00,
2013-02-19 01:31:00,8.4,-3.0,22.48,NNW,333,1.0,21.0,59,0.00,,,0.00,Wunderground v.1.15,2013-02-19 08:31:00,
2013-02-19 01:38:00,7.8,-3.9,22.48,ESE,114,1.0,21.0,58,0.00,,,0.00,Wunderground v.1.15,2013-02-19 08:38:00,
2013-02-19 01:42:00,7.5,-3.5,22.48,NNW,346,1.0,21.0,60,0.00,,,0.00,Wunderground v.1.15,2013-02-19 08:42:00,
2013-02-19 01:48:00,7.1,-3.5,22.48,South,177,1.0,21.0,61,0.00,,,0.00,Wunderground v.1.15,2013-02-19 08:48:00,
2013-02-19 01:50:00,7.0,-3.6,22.47,East,81,1.0,21.0,61,0.00,,,0.00,Wunderground v.1.15,2013-02-19 08:50:00,
2013-02-19 01:54:00,6.7,-3.9,22.47,SSW,204,1.0,1.0,61,0.00,,,0.00,Wunderground v.1.15,2013-02-19 08:54:00,
2013-02-19 01:59:00,6.4,-3.5,22.47,North,358,1.0,21.0,63,0.00,,,0.00,Wunderground v.1.15,2013-02-19 08:59:00,
2013-02-19 02:01:00,6.5,-3.4,22.47,WSW,242,1.0,21.0,63,0.00,,,0.00,Wunderground v.1.15,2013-02-19 09:01:00,
2013-02-19 02:04:00,6.4,-3.5,22.47,WSW,240,1.0,21.0,63,0.00,,,0.00,Wunderground v.1.15,2013-02-19 09:04:00,
2013-02-19 02:06:00,6.4,-3.9,22.47,North,5,1.0,21.0,62,0.00,,,0.00,Wunderground v.1.15,2013-02-19 09:06:00,
2013-02-19 02:10:00,6.4,-3.5,22.47,WSW,250,1.0,21.0,63,0.00,,,0.00,Wunderground v.1.15,2013-02-19 09:10:00,
2013-02-19 02:12:00,6.4,-3.5,22.47,West,268,1.0,21.0,63,0.00,,,0.00,Wunderground v.1.15,2013-02-19 09:12:00,
2013-02-19 02:17:00,6.6,-3.0,22.47,NNW,343,1.0,21.0,64,0.00,,,0.00,Wunderground v.1.15,2013-02-19 09:17:00,
2013-02-19 02:19:00,6.7,-2.9,22.47,ENE,67,0.0,21.0,64,0.00,,,0.00,Wunderground v.1.15,2013-02-19 09:19:00,
2013-02-19 02:21:00,6.9,-2.7,22.47,ENE,64,0.0,21.0,64,0.00,,,0.00,Wunderground v.1.15,2013-02-19 09:21:00,
2013-02-19 02:27:00,6.8,-3.5,22.47,SSW,208,0.0,21.0,62,0.00,,,0.00,Wunderground v.1.15,2013-02-19 09:27:00,
2013-02-19 02:30:00,6.7,-3.2,22.46,North,357,0.0,21.0,63,0.00,,,0.00,Wunderground v.1.15,2013-02-19 09:30:00,
2013-02-19 02:32:00,6.7,-3.2,22.47,West,264,0.0,21.0,63,0.00,,,0.00,Wunderground v.1.15,2013-02-19 09:32:00,
2013-02-19 02:36:00,6.7,-3.2,22.47,WSW,256,0.0,21.0,63,0.00,,,0.00,Wunderground v.1.15,2013-02-19 09:36:00,
2013-02-19 02:38:00,6.7,-3.2,22.46,NNE,18,1.0,21.0,63,0.00,,,0.00,Wunderground v.1.15,2013-02-19 09:38:00,
2013-02-19 02:44:00,6.6,-3.3,22.46,SW,226,1.0,21.0,63,0.00,,,0.00,Wunderground v.1.15,2013-02-19 09:44:00,
2013-02-19 02:45:00,6.5,-3.1,22.47,SW,226,0.0,21.0,64,0.00,,,0.00,Wunderground v.1.15,2013-02-19 09:45:00,
2013-02-19 02:49:00,6.5,-3.1,22.46,West,261,1.0,21.0,64,0.00,,,0.00,Wunderground v.1.15,2013-02-19 09:49:00,
2013-02-19 02:56:00,6.4,-3.2,22.46,SSW,211,1.0,2.0,64,0.00,,,0.00,Wunderground v.1.15,2013-02-19 09:56:00,
2013-02-19 03:00:00,6.7,-2.6,22.46,North,358,1.0,21.0,65,0.00,,,0.00,Wunderground v.1.15,2013-02-19 10:00:00,
2013-02-19 03:02:00,7.0,-2.3,22.46,WSW,253,1.0,21.0,65,0.00,,,0.00,Wunderground v.1.15,2013-02-19 10:02:00,
2013-02-19 03:06:00,7.2,-2.4,22.46,NNW,337,1.0,21.0,64,0.00,,,0.00,Wunderground v.1.15,2013-02-19 10:06:00,
2013-02-19 03:07:00,7.3,-2.3,22.46,NNE,23,1.0,21.0,64,0.00,,,0.00,Wunderground v.1.15,2013-02-19 10:07:00,
2013-02-19 03:11:00,7.6,-2.1,22.46,SSW,197,1.0,21.0,64,0.00,,,0.00,Wunderground v.1.15,2013-02-19 10:11:00,
2013-02-19 03:13:00,7.5,-2.5,22.46,SE,124,2.0,21.0,63,0.00,,,0.00,Wunderground v.1.15,2013-02-19 10:13:00,
2013-02-19 03:18:00,7.2,-2.8,22.46,SSW,203,2.0,21.0,63,0.00,,,0.00,Wunderground v.1.15,2013-02-19 10:18:00,
2013-02-19 03:22:00,7.1,-2.5,22.46,WSW,243,2.0,21.0,64,0.00,,,0.00,Wunderground v.1.15,2013-02-19 10:22:00,
2013-02-19 03:28:00,6.9,-2.7,22.46,ESE,107,1.0,21.0,64,0.00,,,0.00,Wunderground v.1.15,2013-02-19 10:28:00,
2013-02-19 03:32:00,6.9,-2.7,22.45,NNE,19,1.0,21.0,64,0.00,,,0.00,Wunderground v.1.15,2013-02-19 10:32:00,
2013-02-19 03:33:00,6.9,-2.7,22.46,NW,318,1.0,21.0,64,0.00,,,0.00,Wunderground v.1.15,2013-02-19 10:33:00,
2013-02-19 03:35:00,7.0,-2.6,22.46,NNW,345,1.0,21.0,64,0.00,,,0.00,Wunderground v.1.15,2013-02-19 10:35:00,
2013-02-19 03:39:00,7.3,-2.3,22.46,NE,47,1.0,21.0,64,0.00,,,0.00,Wunderground v.1.15,2013-02-19 10:39:00,
2013-02-19 03:44:00,7.3,-2.7,22.46,ENE,74,1.0,1.0,63,0.00,,,0.00,Wunderground v.1.15,2013-02-19 10:44:00,
2013-02-19 03:46:00,7.3,-2.7,22.46,NW,321,1.0,2.0,63,0.00,,,0.00,Wunderground v.1.15,2013-02-19 10:46:00,
2013-02-19 03:48:00,7.4,-2.6,22.45,NE,56,1.0,21.0,63,0.00,,,0.00,Wunderground v.1.15,2013-02-19 10:48:00,
2013-02-19 03:50:00,7.3,-2.7,22.45,East,96,1.0,21.0,63,0.00,,,0.00,Wunderground v.1.15,2013-02-19 10:50:00,
2013-02-19 03:52:00,7.3,-2.3,22.45,SW,232,2.0,21.0,64,0.00,,,0.00,Wunderground v.1.15,2013-02-19 10:52:00,
2013-02-19 03:54:00,7.3,-2.3,22.45,North,353,2.0,2.0,64,0.00,,,0.00,Wunderground v.1.15,2013-02-19 10:54:00,
2013-02-19 03:55:00,7.3,-2.3,22.45,NNE,25,2.0,3.0,64,0.00,,,0.00,Wunderground v.1.15,2013-02-19 10:55:00,
2013-02-19 04:01:00,7.8,-1.9,22.45,East,89,3.0,21.0,64,0.00,,,0.00,Wunderground v.1.15,2013-02-19 11:01:00,
2013-02-19 04:08:00,8.4,-1.6,22.45,ENE,70,3.0,21.0,63,0.00,,,0.00,Wunderground v.1.15,2013-02-19 11:08:00,
2013-02-19 04:10:00,8.7,-1.7,22.44,ENE,70,3.0,21.0,62,0.00,,,0.00,Wunderground v.1.15,2013-02-19 11:10:00,
2013-02-19 04:12:00,9.3,-1.8,22.44,ESE,113,3.0,21.0,60,0.00,,,0.00,Wunderground v.1.15,2013-02-19 11:12:00,
2013-02-19 04:14:00,9.4,-1.7,22.44,SE,146,3.0,3.0,60,0.00,,,0.00,Wunderground v.1.15,2013-02-19 11:14:00,
2013-02-19 04:19:00,9.1,-1.3,22.44,SW,225,3.0,21.0,62,0.00,,,0.00,Wunderground v.1.15,2013-02-19 11:19:00,
2013-02-19 04:22:00,9.0,-1.4,22.45,ESE,120,3.0,21.0,62,0.00,,,0.00,Wunderground v.1.15,2013-02-19 11:22:00,
2013-02-19 04:25:00,8.8,-1.6,22.44,WSW,250,2.0,21.0,62,0.00,,,0.00,Wunderground v.1.15,2013-02-19 11:25:00,
2013-02-19 04:27:00,8.9,-1.5,22.44,SSE,158,2.0,21.0,62,0.00,,,0.00,Wunderground v.1.15,2013-02-19 11:27:00,
2013-02-19 04:32:00,9.1,-2.0,22.44,ENE,75,2.0,21.0,60,0.00,,,0.00,Wunderground v.1.15,2013-02-19 11:32:00,
2013-02-19 04:34:00,9.2,-1.9,22.44,West,275,2.0,2.0,60,0.00,,,0.00,Wunderground v.1.15,2013-02-19 11:34:00,
2013-02-19 04:38:00,9.4,-1.7,22.44,SW,229,2.0,21.0,60,0.00,,,0.00,Wunderground v.1.15,2013-02-19 11:38:00,
2013-02-19 04:40:00,9.2,-1.9,22.44,WNW,291,2.0,21.0,60,0.00,,,0.00,Wunderground v.1.15,2013-02-19 11:40:00,
2013-02-19 04:45:00,11.9,-4.9,22.44,SE,133,3.0,21.0,46,0.00,,,0.00,Wunderground v.1.15,2013-02-19 11:45:00,
2013-02-19 04:49:00,13.6,-5.3,22.44,SSE,162,3.0,21.0,42,0.00,,,0.00,Wunderground v.1.15,2013-02-19 11:49:00,
2013-02-19 04:51:00,14.6,-7.6,22.44,SSW,211,2.0,21.0,36,0.00,,,0.00,Wunderground v.1.15,2013-02-19 11:51:00,
2013-02-19 04:56:00,19.8,-13.9,22.44,SW,222,3.0,21.0,21,0.00,,,0.00,Wunderground v.1.15,2013-02-19 11:56:00,
2013-02-19 04:58:00,21.4,-14.6,22.44,East,81,3.0,21.0,19,0.00,,,0.00,Wunderground v.1.15,2013-02-19 11:58:00,
2013-02-19 05:02:00,23.6,-14.9,22.43,WSW,257,3.0,21.0,17,0.00,,,0.00,Wunderground v.1.15,2013-02-19 12:02:00,
2013-02-19 05:04:00,24.3,-15.6,22.44,West,259,2.0,2.0,16,0.00,,,0.00,Wunderground v.1.15,2013-02-19 12:04:00,
2013-02-19 05:06:00,24.7,-15.2,22.44,SW,221,2.0,7.0,16,0.00,,,0.00,Wunderground v.1.15,2013-02-19 12:06:00,
2013-02-19 05:10:00,25.6,-17.1,22.43,NW,323,3.0,21.0,14,0.00,,,0.00,Wunderground v.1.15,2013-02-19 12:10:00,
2013-02-19 05:11:00,25.9,-18.3,22.43,WNW,289,2.0,21.0,13,0.00,,,0.00,Wunderground v.1.15,2013-02-19 12:11:00,
2013-02-19 05:13:00,26.1,-18.2,22.44,WSW,246,2.0,21.0,13,0.00,,,0.00,Wunderground v.1.15,2013-02-19 12:13:00,
2013-02-19 05:20:00,26.4,-17.9,22.43,SSE,158,2.0,21.0,13,0.00,,,0.00,Wunderground v.1.15,2013-02-19 12:20:00,
2013-02-19 05:22:00,26.5,-17.8,22.43,NNE,13,3.0,21.0,13,0.00,,,0.00,Wunderground v.1.15,2013-02-19 12:22:00,
2013-02-19 05:26:00,26.4,-15.1,22.43,SW,224,2.0,21.0,15,0.00,,,0.00,Wunderground v.1.15,2013-02-19 12:26:00,
2013-02-19 05:32:00,23.5,-8.1,22.43,East,91,2.0,21.0,24,0.00,,,0.00,Wunderground v.1.15,2013-02-19 12:32:00,
2013-02-19 05:34:00,22.1,-8.4,22.43,SW,226,2.0,21.0,25,0.00,,,0.00,Wunderground v.1.15,2013-02-19 12:34:00,
2013-02-19 05:36:00,21.0,-7.1,22.43,SE,129,2.0,21.0,28,0.00,,,0.00,Wunderground v.1.15,2013-02-19 12:36:00,
2013-02-19 05:42:00,18.8,-8.3,22.44,South,178,2.0,21.0,29,0.00,,,0.00,Wunderground v.1.15,2013-02-19 12:42:00,
2013-02-19 05:44:00,18.6,-8.4,22.44,ENE,63,2.0,21.0,29,0.00,,,0.00,Wunderground v.1.15,2013-02-19 12:44:00,
2013-02-19 05:48:00,19.2,-8.6,22.44,ENE,72,2.0,21.0,28,0.00,,,0.00,Wunderground v.1.15,2013-02-19 12:48:00,
2013-02-19 05:54:00,18.3,-8.7,22.44,WSW,248,2.0,21.0,29,0.00,,,0.00,Wunderground v.1.15,2013-02-19 12:54:00,
2013-02-19 05:56:00,17.9,-9.8,22.44,ENE,74,2.0,21.0,28,0.00,,,0.00,Wunderground v.1.15,2013-02-19 12:56:00,
2013-02-19 06:01:00,16.9,-7.9,22.44,East,98,1.0,21.0,32,0.00,,,0.00,Wunderground v.1.15,2013-02-19 13:01:00,
2013-02-19 06:03:00,16.2,-7.3,22.44,SSW,207,1.0,21.0,34,0.00,,,0.00,Wunderground v.1.15,2013-02-19 13:03:00,
2013-02-19 06:10:00,14.5,-6.5,22.44,SE,141,1.0,21.0,38,0.00,,,0.00,Wunderground v.1.15,2013-02-19 13:10:00,
2013-02-19 06:12:00,14.3,-6.7,22.44,SE,141,1.0,21.0,38,0.00,,,0.00,Wunderground v.1.15,2013-02-19 13:12:00,
2013-02-19 06:14:00,14.2,-7.4,22.44,NE,36,1.0,21.0,37,0.00,,,0.00,Wunderground v.1.15,2013-02-19 13:14:00,
2013-02-19 06:18:00,14.4,-7.7,22.44,SW,229,1.0,21.0,36,0.00,,,0.00,Wunderground v.1.15,2013-02-19 13:18:00,
2013-02-19 06:22:00,14.2,-8.5,22.44,NE,43,1.0,21.0,35,0.00,,,0.00,Wunderground v.1.15,2013-02-19 13:22:00,
2013-02-19 06:24:00,14.7,-9.9,22.44,East,89,2.0,2.0,32,0.00,,,0.00,Wunderground v.1.15,2013-02-19 13:24:00,
2013-02-19 06:28:00,15.1,-10.2,22.44,SSE,157,1.0,21.0,31,0.00,,,0.00,Wunderground v.1.15,2013-02-19 13:28:00,
2013-02-19 06:34:00,14.7,-11.9,22.44,NNE,23,1.0,1.0,29,0.00,,,0.00,Wunderground v.1.15,2013-02-19 13:34:00,
2013-02-19 06:38:00,14.4,-10.1,22.44,ENE,72,1.0,21.0,32,0.00,,,0.00,Wunderground v.1.15,2013-02-19 13:38:00,
2013-02-19 06:40:00,14.4,-12.1,22.44,NNW,333,1.0,21.0,29,0.00,,,0.00,Wunderground v.1.15,2013-02-19 13:40:00,
2013-02-19 06:44:00,15.3,-14.3,22.44,NE,56,1.0,1.0,25,0.00,,,0.00,Wunderground v.1.15,2013-02-19 13:44:00,
2013-02-19 06:50:00,17.3,-12.6,22.44,SW,224,1.0,21.0,25,0.00,,,0.00,Wunderground v.1.15,2013-02-19 13:50:00,
2013-02-19 06:52:00,17.1,-12.0,22.44,SW,224,1.0,21.0,26,0.00,,,0.00,Wunderground v.1.15,2013-02-19 13:52:00,
2013-02-19 06:53:00,16.8,-12.2,22.44,SSE,153,1.0,1.0,26,0.00,,,0.00,Wunderground v.1.15,2013-02-19 13:53:00,
2013-02-19 06:59:00,17.0,-15.4,22.44,NE,46,1.0,21.0,22,0.00,,,0.00,Wunderground v.1.15,2013-02-19 13:59:00,
2013-02-19 07:01:00,18.0,-16.4,22.44,WSW,246,1.0,21.0,20,0.00,,,0.00,Wunderground v.1.15,2013-02-19 14:01:00,
2013-02-19 07:08:00,18.6,-15.9,22.44,SE,129,1.0,21.0,20,0.00,,,0.00,Wunderground v.1.15,2013-02-19 14:08:00,
2013-02-19 07:10:00,18.6,-15.9,22.44,SE,134,1.0,21.0,20,0.00,,,0.00,Wunderground v.1.15,2013-02-19 14:10:00,
2013-02-19 07:12:00,18.6,-16.9,22.44,SE,134,1.0,21.0,19,0.00,,,0.00,Wunderground v.1.15,2013-02-19 14:12:00,
2013-02-19 07:14:00,18.8,-16.7,22.44,NW,314,1.0,1.0,19,0.00,,,0.00,Wunderground v.1.15,2013-02-19 14:14:00,
2013-02-19 07:15:00,18.9,-16.7,22.44,SE,130,1.0,21.0,19,0.00,,,0.00,Wunderground v.1.15,2013-02-19 14:15:00,
2013-02-19 07:19:00,18.8,-16.7,22.44,SE,130,0.0,21.0,19,0.00,,,0.00,Wunderground v.1.15,2013-02-19 14:19:00,
2013-02-19 07:21:00,18.5,-16.0,22.44,SE,129,0.0,21.0,20,0.00,,,0.00,Wunderground v.1.15,2013-02-19 14:21:00,
2013-02-19 07:28:00,18.2,-16.2,22.45,North,9,0.0,21.0,20,0.00,,,0.00,Wunderground v.1.15,2013-02-19 14:28:00,
2013-02-19 07:32:00,17.4,-16.0,22.45,NNW,342,1.0,21.0,21,0.00,,,0.00,Wunderground v.1.15,2013-02-19 14:32:00,
2013-02-19 07:34:00,17.3,-17.0,22.45,NNW,329,1.0,1.0,20,0.00,,,0.00,Wunderground v.1.15,2013-02-19 14:34:00,
2013-02-19 07:38:00,17.3,-17.0,22.45,NNW,347,1.0,21.0,20,0.00,,,0.00,Wunderground v.1.15,2013-02-19 14:38:00,
2013-02-19 07:42:00,18.1,-18.4,22.45,North,356,1.0,21.0,18,0.00,,,0.00,Wunderground v.1.15,2013-02-19 14:42:00,
2013-02-19 07:45:00,18.1,-15.4,22.45,ESE,121,1.0,21.0,21,0.00,,,0.00,Wunderground v.1.15,2013-02-19 14:45:00,
2013-02-19 07:47:00,17.9,-16.5,22.45,NW,326,1.0,21.0,20,0.00,,,0.00,Wunderground v.1.15,2013-02-19 14:47:00,
2013-02-19 07:50:00,17.9,-16.5,22.45,NNW,328,1.0,21.0,20,0.00,,,0.00,Wunderground v.1.15,2013-02-19 14:50:00,
2013-02-19 07:54:00,17.9,-16.5,22.45,North,355,1.0,21.0,20,0.00,,,0.00,Wunderground v.1.15,2013-02-19 14:54:00,
2013-02-19 07:56:00,18.2,-17.3,22.45,SW,214,1.0,21.0,19,0.00,,,0.00,Wunderground v.1.15,2013-02-19 14:56:00,
2013-02-19 08:02:00,17.9,-16.5,22.45,WSW,247,1.0,21.0,20,0.00,,,0.00,Wunderground v.1.15,2013-02-19 15:02:00,
2013-02-19 08:04:00,17.9,-17.5,22.45,WSW,245,1.0,21.0,19,0.00,,,0.00,Wunderground v.1.15,2013-02-19 15:04:00,
2013-02-19 08:07:00,18.7,-17.9,22.45,WNW,297,1.0,21.0,18,0.00,,,0.00,Wunderground v.1.15,2013-02-19 15:07:00,
2013-02-19 08:09:00,19.4,-17.3,22.45,NW,314,1.0,21.0,18,0.00,,,0.00,Wunderground v.1.15,2013-02-19 15:09:00,
2013-02-19 08:16:00,22.0,-20.0,22.45,WSW,248,2.0,21.0,14,0.00,,,0.00,Wunderground v.1.15,2013-02-19 15:16:00,
2013-02-19 08:18:00,22.7,-19.5,22.45,WNW,285,2.0,21.0,14,0.00,,,0.00,Wunderground v.1.15,2013-02-19 15:18:00,
2013-02-19 08:20:00,23.0,-17.9,22.45,SW,235,2.0,21.0,15,0.00,,,0.00,Wunderground v.1.15,2013-02-19 15:20:00,
2013-02-19 08:24:00,23.4,-18.9,22.45,West,271,2.0,21.0,14,0.00,,,0.00,Wunderground v.1.15,2013-02-19 15:24:00,
2013-02-19 08:26:00,23.8,-20.0,22.45,SW,224,2.0,21.0,13,0.00,,,0.00,Wunderground v.1.15,2013-02-19 15:26:00,
2013-02-19 08:32:00,24.9,-20.7,22.45,NW,314,2.0,21.0,12,0.00,,,0.00,Wunderground v.1.15,2013-02-19 15:32:00,
2013-02-19 08:33:00,24.9,-19.1,22.45,WSW,238,2.0,21.0,13,0.00,,,0.00,Wunderground v.1.15,2013-02-19 15:33:00,
2013-02-19 08:35:00,25.0,-19.0,22.45,SW,214,2.0,21.0,13,0.00,,,0.00,Wunderground v.1.15,2013-02-19 15:35:00,
2013-02-19 08:38:00,24.9,-19.1,22.45,SW,218,1.0,21.0,13,0.00,,,0.00,Wunderground v.1.15,2013-02-19 15:38:00,
2013-02-19 08:42:00,25.0,-22.3,22.45,SW,231,1.0,21.0,11,0.00,,,0.00,Wunderground v.1.15,2013-02-19 15:42:00,
2013-02-19 08:44:00,25.3,-22.0,22.45,SW,231,1.0,21.0,11,0.00,,,0.00,Wunderground v.1.15,2013-02-19 15:44:00,
2013-02-19 08:48:00,25.7,-20.0,22.45,WSW,245,1.0,21.0,12,0.00,,,0.00,Wunderground v.1.15,2013-02-19 15:48:00,
2013-02-19 08:53:00,25.6,-21.8,22.45,North,349,1.0,1.0,11,0.00,,,0.00,Wunderground v.1.15,2013-02-19 15:53:00,
2013-02-19 08:55:00,25.5,-20.2,22.45,West,275,0.0,21.0,12,0.00,,,0.00,Wunderground v.1.15,2013-02-19 15:55:00,
2013-02-19 08:57:00,25.7,-21.7,22.45,NNW,347,0.0,21.0,11,0.00,,,0.00,Wunderground v.1.15,2013-02-19 15:57:00,
2013-02-19 08:59:00,25.9,-19.9,22.45,NW,326,1.0,21.0,12,0.00,,,0.00,Wunderground v.1.15,2013-02-19 15:59:00,
2013-02-19 09:01:00,26.1,-21.4,22.45,West,277,1.0,21.0,11,0.00,,,0.00,Wunderground v.1.15,2013-02-19 16:01:00,
2013-02-19 09:06:00,26.6,-19.3,22.45,SW,236,1.0,21.0,12,0.00,,,0.00,Wunderground v.1.15,2013-02-19 16:06:00,
2013-02-19 09:08:00,26.6,-19.3,22.45,SW,235,1.0,21.0,12,0.00,,,0.00,Wunderground v.1.15,2013-02-19 16:08:00,
2013-02-19 09:10:00,26.6,-19.3,22.45,SW,229,1.0,21.0,12,0.00,,,0.00,Wunderground v.1.15,2013-02-19 16:10:00,
2013-02-19 09:16:00,26.6,-17.8,22.45,West,260,2.0,21.0,13,0.00,,,0.00,Wunderground v.1.15,2013-02-19 16:16:00,
2013-02-19 09:18:00,26.7,-17.7,22.45,WSW,240,2.0,21.0,13,0.00,,,0.00,Wunderground v.1.15,2013-02-19 16:18:00,
2013-02-19 09:21:00,27.4,-22.2,22.45,West,277,2.0,21.0,10,0.00,,,0.00,Wunderground v.1.15,2013-02-19 16:21:00,
2013-02-19 09:24:00,27.7,-20.1,22.44,SW,231,3.0,21.0,11,0.00,,,0.00,Wunderground v.1.15,2013-02-19 16:24:00,
2013-02-19 09:30:00,28.6,-21.2,22.44,SW,235,4.0,21.0,10,0.00,,,0.00,Wunderground v.1.15,2013-02-19 16:30:00,
2013-02-19 09:32:00,28.8,-19.2,22.44,WSW,240,3.0,21.0,11,0.00,,,0.00,Wunderground v.1.15,2013-02-19 16:32:00,
2013-02-19 09:34:00,29.0,-19.1,22.44,SW,223,3.0,3.0,11,0.00,,,0.00,Wunderground v.1.15,2013-02-19 16:34:00,
2013-02-19 09:40:00,29.7,-18.5,22.44,SSW,207,1.0,21.0,11,0.00,,,0.00,Wunderground v.1.15,2013-02-19 16:40:00,
2013-02-19 09:44:00,30.2,-18.1,22.44,SSE,155,1.0,21.0,11,0.00,,,0.00,Wunderground v.1.15,2013-02-19 16:44:00,
2013-02-19 09:45:00,30.5,-19.8,22.43,SSE,148,2.0,21.0,10,0.00,,,0.00,Wunderground v.1.15,2013-02-19 16:45:00,
2013-02-19 09:50:00,30.9,-17.6,22.43,SSW,210,2.0,21.0,11,0.00,,,0.00,Wunderground v.1.15,2013-02-19 16:50:00,
2013-02-19 09:52:00,31.1,-17.4,22.43,SE,137,2.0,21.0,11,0.00,,,0.00,Wunderground v.1.15,2013-02-19 16:52:00,
2013-02-19 09:58:00,31.4,-19.0,22.43,SE,127,1.0,21.0,10,0.00,,,0.00,Wunderground v.1.15,2013-02-19 16:58:00,
2013-02-19 10:00:00,31.9,-15.1,22.43,SE,143,1.0,21.0,12,0.00,,,0.00,Wunderground v.1.15,2013-02-19 17:00:00,
2013-02-19 10:06:00,33.7,-19.3,22.43,SW,217,2.0,21.0,9,0.00,,,0.00,Wunderground v.1.15,2013-02-19 17:06:00,
2013-02-19 10:07:00,34.3,-18.8,22.43,NW,321,2.0,21.0,9,0.00,,,0.00,Wunderground v.1.15,2013-02-19 17:07:00,
2013-02-19 10:09:00,34.8,-23.3,22.42,ENE,77,3.0,21.0,7,0.00,,,0.00,Wunderground v.1.15,2013-02-19 17:09:00,
2013-02-19 10:16:00,34.8,-18.4,22.43,NNW,344,3.0,21.0,9,0.00,,,0.00,Wunderground v.1.15,2013-02-19 17:16:00,
2013-02-19 10:18:00,35.0,-18.3,22.43,ENE,71,3.0,21.0,9,0.00,,,0.00,Wunderground v.1.15,2013-02-19 17:18:00,
2013-02-19 10:24:00,34.7,-20.8,22.42,East,79,1.0,21.0,8,0.00,,,0.00,Wunderground v.1.15,2013-02-19 17:24:00,
2013-02-19 10:26:00,34.4,-21.0,22.42,East,83,2.0,21.0,8,0.00,,,0.00,Wunderground v.1.15,2013-02-19 17:26:00,
2013-02-19 10:28:00,34.3,-21.1,22.42,East,82,1.0,21.0,8,0.00,,,0.00,Wunderground v.1.15,2013-02-19 17:28:00,
2013-02-19 10:30:00,34.4,-21.0,22.42,East,83,1.0,21.0,8,0.00,,,0.00,Wunderground v.1.15,2013-02-19 17:30:00,
2013-02-19 10:33:00,34.2,-21.2,22.42,ESE,112,1.0,21.0,8,0.00,,,0.00,Wunderground v.1.15,2013-02-19 17:33:00,
2013-02-19 10:35:00,34.1,-21.3,22.42,NE,47,1.0,21.0,8,0.00,,,0.00,Wunderground v.1.15,2013-02-19 17:35:00,
2013-02-19 10:39:00,34.0,-21.3,22.42,NW,322,2.0,21.0,8,0.00,,,0.00,Wunderground v.1.15,2013-02-19 17:39:00,
2013-02-19 10:42:00,34.1,-19.0,22.42,SW,231,1.0,21.0,9,0.00,,,0.00,Wunderground v.1.15,2013-02-19 17:42:00,
2013-02-19 10:48:00,34.7,-18.5,22.42,SSW,212,1.0,21.0,9,0.00,,,0.00,Wunderground v.1.15,2013-02-19 17:48:00,
2013-02-19 10:50:00,35.1,-18.2,22.42,SW,218,0.0,21.0,9,0.00,,,0.00,Wunderground v.1.15,2013-02-19 17:50:00,
2013-02-19 10:54:00,35.3,-20.3,22.42,SW,236,1.0,21.0,8,0.00,,,0.00,Wunderground v.1.15,2013-02-19 17:54:00,
2013-02-19 10:59:00,35.6,-22.7,22.42,SW,218,1.0,21.0,7,0.00,,,0.00,Wunderground v.1.15,2013-02-19 17:59:00,
2013-02-19 11:04:00,36.3,-22.1,22.42,ESE,108,0.0,21.0,7,0.00,,,0.00,Wunderground v.1.15,2013-02-19 18:04:00,
2013-02-19 11:06:00,36.5,-22.0,22.42,SE,127,0.0,21.0,7,0.00,,,0.00,Wunderground v.1.15,2013-02-19 18:06:00,
2013-02-19 11:08:00,36.7,-24.8,22.42,NE,43,0.0,21.0,6,0.00,,,0.00,Wunderground v.1.15,2013-02-19 18:08:00,
2013-02-19 11:12:00,37.0,-24.5,22.42,SE,135,1.0,21.0,6,0.00,,,0.00,Wunderground v.1.15,2013-02-19 18:12:00,
2013-02-19 11:14:00,37.1,-24.5,22.41,SSW,205,1.0,21.0,6,0.00,,,0.00,Wunderground v.1.15,2013-02-19 18:14:00,
2013-02-19 11:18:00,37.5,-24.2,22.41,SSE,166,1.0,21.0,6,0.00,,,0.00,Wunderground v.1.15,2013-02-19 18:18:00,
2013-02-19 11:19:00,37.6,-24.1,22.41,SSW,207,1.0,21.0,6,0.00,,,0.00,Wunderground v.1.15,2013-02-19 18:19:00,
2013-02-19 11:21:00,37.7,-24.0,22.41,SW,222,1.0,21.0,6,0.00,,,0.00,Wunderground v.1.15,2013-02-19 18:21:00,
2013-02-19 11:23:00,37.9,-23.9,22.41,SSW,207,1.0,1.0,6,0.00,,,0.00,Wunderground v.1.15,2013-02-19 18:23:00,
2013-02-19 11:25:00,38.1,-23.7,22.41,North,353,1.0,21.0,6,0.00,,,0.00,Wunderground v.1.15,2013-02-19 18:25:00,
2013-02-19 11:30:00,38.2,-20.7,22.41,NE,54,1.0,21.0,7,0.00,,,0.00,Wunderground v.1.15,2013-02-19 18:30:00,
2013-02-19 11:32:00,38.1,-20.8,22.41,ENE,72,2.0,21.0,7,0.00,,,0.00,Wunderground v.1.15,2013-02-19 18:32:00,
2013-02-19 11:36:00,37.9,-20.9,22.41,NNE,26,2.0,21.0,7,0.00,,,0.00,Wunderground v.1.15,2013-02-19 18:36:00,
2013-02-19 11:38:00,37.9,-20.9,22.41,ENE,60,2.0,21.0,7,0.00,,,0.00,Wunderground v.1.15,2013-02-19 18:38:00,
2013-02-19 11:40:00,37.8,-18.4,22.40,NNE,22,3.0,21.0,8,0.00,,,0.00,Wunderground v.1.15,2013-02-19 18:40:00,
2013-02-19 11:44:00,38.0,-18.3,22.40,ENE,65,2.0,21.0,8,0.00,,,0.00,Wunderground v.1.15,2013-02-19 18:44:00,
2013-02-19 11:46:00,38.2,-18.1,22.40,NE,39,3.0,21.0,8,0.00,,,0.00,Wunderground v.1.15,2013-02-19 18:46:00,
2013-02-19 11:51:00,39.1,-20.0,22.40,NW,326,2.0,21.0,7,0.00,,,0.00,Wunderground v.1.15,2013-02-19 18:51:00,
2013-02-19 11:56:00,39.5,-19.7,22.39,NE,41,2.0,21.0,7,0.00,,,0.00,Wunderground v.1.15,2013-02-19 18:56:00,
2013-02-19 11:58:00,39.5,-19.7,22.39,ESE,108,2.0,21.0,7,0.00,,,0.00,Wunderground v.1.15,2013-02-19 18:58:00,
2013-02-19 12:00:00,39.6,-19.7,22.39,South,188,2.0,21.0,7,0.00,,,0.00,Wunderground v.1.15,2013-02-19 19:00:00,
2013-02-19 12:02:00,39.7,-17.0,22.39,South,170,2.0,21.0,8,0.00,,,0.00,Wunderground v.1.15,2013-02-19 19:02:00,
2013-02-19 12:04:00,40.0,-16.8,22.39,SE,134,2.0,21.0,8,0.00,,,0.00,Wunderground v.1.15,2013-02-19 19:04:00,
2013-02-19 12:06:00,40.4,-16.5,22.39,SSE,155,3.0,21.0,8,0.00,,,0.00,Wunderground v.1.15,2013-02-19 19:06:00,
2013-02-19 12:12:00,41.7,-18.1,22.39,SW,226,3.0,21.0,7,0.00,,,0.00,Wunderground v.1.15,2013-02-19 19:12:00,
2013-02-19 12:14:00,41.8,-18.0,22.39,WSW,258,4.0,21.0,7,0.00,,,0.00,Wunderground v.1.15,2013-02-19 19:14:00,
2013-02-19 12:15:00,41.6,-21.1,22.38,WSW,243,4.0,21.0,6,0.00,,,0.00,Wunderground v.1.15,2013-02-19 19:15:00,
2013-02-19 12:22:00,41.7,-21.1,22.38,SW,217,3.0,21.0,6,0.00,,,0.00,Wunderground v.1.15,2013-02-19 19:22:00,
2013-02-19 12:24:00,41.9,-20.9,22.38,ESE,106,2.0,2.0,6,0.00,,,0.00,Wunderground v.1.15,2013-02-19 19:24:00,
2013-02-19 12:28:00,42.7,-20.3,22.38,NNW,333,2.0,21.0,6,0.00,,,0.00,Wunderground v.1.15,2013-02-19 19:28:00,
2013-02-19 12:30:00,42.7,-20.3,22.37,ENE,63,2.0,21.0,6,0.00,,,0.00,Wunderground v.1.15,2013-02-19 19:30:00,
2013-02-19 12:34:00,42.7,-20.3,22.37,ESE,122,3.0,21.0,6,0.00,,,0.00,Wunderground v.1.15,2013-02-19 19:34:00,
2013-02-19 12:35:00,42.6,-20.4,22.37,East,96,3.0,21.0,6,0.00,,,0.00,Wunderground v.1.15,2013-02-19 19:35:00,
2013-02-19 12:39:00,42.5,-20.5,22.36,South,170,2.0,21.0,6,0.00,,,0.00,Wunderground v.1.15,2013-02-19 19:39:00,
2013-02-19 12:42:00,42.8,-20.3,22.36,ENE,58,2.0,21.0,6,0.00,,,0.00,Wunderground v.1.15,2013-02-19 19:42:00,
2013-02-19 12:44:00,42.6,-17.4,22.36,East,96,3.0,21.0,7,0.00,,,0.00,Wunderground v.1.15,2013-02-19 19:44:00,
2013-02-19 12:48:00,42.6,-17.4,22.36,East,89,3.0,21.0,7,0.00,,,0.00,Wunderground v.1.15,2013-02-19 19:48:00,
2013-02-19 12:54:00,42.6,-17.4,22.36,NE,47,4.0,4.0,7,0.00,,,0.00,Wunderground v.1.15,2013-02-19 19:54:00,
2013-02-19 12:56:00,42.5,-17.5,22.36,NE,56,3.0,21.0,7,0.00,,,0.00,Wunderground v.1.15,2013-02-19 19:56:00,
2013-02-19 12:58:00,42.4,-17.6,22.35,NE,49,4.0,21.0,7,0.00,,,0.00,Wunderground v.1.15,2013-02-19 19:58:00,
2013-02-19 13:01:00,41.9,-17.9,22.35,NE,37,4.0,21.0,7,0.00,,,0.00,Wunderground v.1.15,2013-02-19 20:01:00,
2013-02-19 13:03:00,42.0,-17.9,22.35,NE,47,4.0,21.0,7,0.00,,,0.00,Wunderground v.1.15,2013-02-19 20:03:00,
2013-02-19 13:09:00,42.2,-17.7,22.35,ESE,108,4.0,21.0,7,0.00,,,0.00,Wunderground v.1.15,2013-02-19 20:09:00,
2013-02-19 13:12:00,42.7,-17.3,22.35,ENE,64,4.0,21.0,7,0.00,,,0.00,Wunderground v.1.15,2013-02-19 20:12:00,
2013-02-19 13:14:00,42.7,-20.3,22.35,SSE,148,4.0,4.0,6,0.00,,,0.00,Wunderground v.1.15,2013-02-19 20:14:00,
2013-02-19 13:18:00,42.8,-20.3,22.35,ESE,115,4.0,21.0,6,0.00,,,0.00,Wunderground v.1.15,2013-02-19 20:18:00,
2013-02-19 13:22:00,42.9,-20.2,22.35,SW,225,4.0,21.0,6,0.00,,,0.00,Wunderground v.1.15,2013-02-19 20:22:00,
2013-02-19 13:26:00,42.9,-17.2,22.35,South,170,5.0,21.0,7,0.00,,,0.00,Wunderground v.1.15,2013-02-19 20:26:00,
2013-02-19 13:29:00,42.3,-15.0,22.34,SE,133,6.0,21.0,8,0.00,,,0.00,Wunderground v.1.15,2013-02-19 20:29:00,
2013-02-19 13:33:00,42.2,-12.7,22.34,South,172,7.0,21.0,9,0.00,,,0.00,Wunderground v.1.15,2013-02-19 20:33:00,
2013-02-19 13:36:00,41.9,-13.0,22.34,SSE,164,7.0,21.0,9,0.00,,,0.00,Wunderground v.1.15,2013-02-19 20:36:00,
2013-02-19 13:42:00,41.7,-13.1,22.34,ESE,117,6.0,21.0,9,0.00,,,0.00,Wunderground v.1.15,2013-02-19 20:42:00,
2013-02-19 13:46:00,41.7,-15.5,22.34,ESE,119,6.0,21.0,8,0.00,,,0.00,Wunderground v.1.15,2013-02-19 20:46:00,
2013-02-19 13:50:00,41.6,-15.5,22.34,SE,131,6.0,21.0,8,0.00,,,0.00,Wunderground v.1.15,2013-02-19 20:50:00,
2013-02-19 13:52:00,41.4,-13.4,22.34,SSE,155,7.0,21.0,9,0.00,,,0.00,Wunderground v.1.15,2013-02-19 20:52:00,
2013-02-19 13:54:00,41.2,-13.5,22.34,South,181,7.0,7.0,9,0.00,,,0.00,Wunderground v.1.15,2013-02-19 20:54:00,
2013-02-19 13:56:00,41.2,-13.5,22.34,SSE,153,7.0,21.0,9,0.00,,,0.00,Wunderground v.1.15,2013-02-19 20:56:00,
2013-02-19 13:59:00,41.4,-13.4,22.34,SSE,153,7.0,21.0,9,0.00,,,0.00,Wunderground v.1.15,2013-02-19 20:59:00,
2013-02-19 14:06:00,40.9,-16.1,22.34,SSE,150,6.0,21.0,8,0.00,,,0.00,Wunderground v.1.15,2013-02-19 21:06:00,
2013-02-19 14:10:00,41.1,-13.6,22.34,ESE,121,6.0,21.0,9,0.00,,,0.00,Wunderground v.1.15,2013-02-19 21:10:00,
2013-02-19 14:12:00,40.8,-13.8,22.34,South,187,6.0,21.0,9,0.00,,,0.00,Wunderground v.1.15,2013-02-19 21:12:00,
2013-02-19 14:14:00,40.7,-16.2,22.34,SE,131,6.0,21.0,8,0.00,,,0.00,Wunderground v.1.15,2013-02-19 21:14:00,
2013-02-19 14:18:00,40.4,-14.1,22.34,SE,139,6.0,21.0,9,0.00,,,0.00,Wunderground v.1.15,2013-02-19 21:18:00,
2013-02-19 14:22:00,40.6,-14.0,22.33,South,186,5.0,21.0,9,0.00,,,0.00,Wunderground v.1.15,2013-02-19 21:22:00,
2013-02-19 14:25:00,40.3,-14.2,22.33,South,179,6.0,21.0,9,0.00,,,0.00,Wunderground v.1.15,2013-02-19 21:25:00,
2013-02-19 14:27:00,40.0,-12.3,22.33,SE,130,6.0,21.0,10,0.00,,,0.00,Wunderground v.1.15,2013-02-19 21:27:00,
2013-02-19 14:32:00,39.7,-12.6,22.34,SE,143,7.0,21.0,10,0.00,,,0.00,Wunderground v.1.15,2013-02-19 21:32:00,
2013-02-19 14:36:00,39.7,-12.6,22.34,South,187,6.0,21.0,10,0.00,,,0.00,Wunderground v.1.15,2013-02-19 21:36:00,
2013-02-19 14:40:00,39.4,-14.9,22.34,South,181,6.0,21.0,9,0.00,,,0.00,Wunderground v.1.15,2013-02-19 21:40:00,
2013-02-19 14:42:00,39.6,-14.7,22.34,South,171,6.0,21.0,9,0.00,,,0.00,Wunderground v.1.15,2013-02-19 21:42:00,
2013-02-19 14:48:00,39.5,-19.7,22.34,South,178,5.0,21.0,7,0.00,,,0.00,Wunderground v.1.15,2013-02-19 21:48:00,
2013-02-19 14:49:00,39.4,-19.8,22.34,SE,126,4.0,21.0,7,0.00,,,0.00,Wunderground v.1.15,2013-02-19 21:49:00,
2013-02-19 14:51:00,39.2,-22.9,22.34,East,99,4.0,21.0,6,0.00,,,0.00,Wunderground v.1.15,2013-02-19 21:51:00,
2013-02-19 14:58:00,38.7,-20.3,22.34,SE,144,4.0,21.0,7,0.00,,,0.00,Wunderground v.1.15,2013-02-19 21:58:00,
2013-02-19 15:02:00,38.5,-17.9,22.34,NNE,22,5.0,21.0,8,0.00,,,0.00,Wunderground v.1.15,2013-02-19 22:02:00,
2013-02-19 15:08:00,38.5,-17.9,22.34,South,181,5.0,21.0,8,0.00,,,0.00,Wunderground v.1.15,2013-02-19 22:08:00,
2013-02-19 15:12:00,38.5,-17.9,22.34,ESE,105,5.0,21.0,8,0.00,,,0.00,Wunderground v.1.15,2013-02-19 22:12:00,
2013-02-19 15:14:00,38.5,-17.9,22.34,SE,141,5.0,5.0,8,0.00,,,0.00,Wunderground v.1.15,2013-02-19 22:14:00,
2013-02-19 15:15:00,38.4,-18.0,22.34,SE,143,4.0,21.0,8,0.00,,,0.00,Wunderground v.1.15,2013-02-19 22:15:00,
2013-02-19 15:17:00,38.6,-17.8,22.34,East,98,4.0,21.0,8,0.00,,,0.00,Wunderground v.1.15,2013-02-19 22:17:00,
2013-02-19 15:22:00,38.7,-17.7,22.34,SE,126,4.0,21.0,8,0.00,,,0.00,Wunderground v.1.15,2013-02-19 22:22:00,
2013-02-19 15:24:00,38.7,-13.3,22.34,NE,49,4.0,4.0,10,0.00,,,0.00,Wunderground v.1.15,2013-02-19 22:24:00,
2013-02-19 15:28:00,38.7,-17.7,22.34,ESE,112,3.0,21.0,8,0.00,,,0.00,Wunderground v.1.15,2013-02-19 22:28:00,
2013-02-19 15:30:00,38.7,-20.3,22.34,South,169,3.0,21.0,7,0.00,,,0.00,Wunderground v.1.15,2013-02-19 22:30:00,
2013-02-19 15:36:00,38.5,-8.2,22.34,NNE,29,3.0,21.0,13,0.00,,,0.00,Wunderground v.1.15,2013-02-19 22:36:00,
2013-02-19 15:41:00,37.2,-3.7,22.34,ENE,60,3.0,21.0,17,0.00,,,0.00,Wunderground v.1.15,2013-02-19 22:41:00,
2013-02-19 15:43:00,36.8,-4.0,22.34,NNE,27,3.0,3.0,17,0.00,,,0.00,Wunderground v.1.15,2013-02-19 22:43:00,
2013-02-19 15:46:00,36.7,-2.9,22.34,NNW,335,3.0,21.0,18,0.00,,,0.00,Wunderground v.1.15,2013-02-19 22:46:00,
2013-02-19 15:52:00,35.9,-2.4,22.34,North,11,4.0,21.0,19,0.00,,,0.00,Wunderground v.1.15,2013-02-19 22:52:00,
2013-02-19 15:54:00,35.5,-3.9,22.34,NNE,29,4.0,21.0,18,0.00,,,0.00,Wunderground v.1.15,2013-02-19 22:54:00,
2013-02-19 15:56:00,35.1,-4.2,22.34,ENE,75,4.0,21.0,18,0.00,,,0.00,Wunderground v.1.15,2013-02-19 22:56:00,
2013-02-19 16:00:00,34.2,-7.4,22.34,NNW,341,5.0,21.0,16,0.00,,,0.00,Wunderground v.1.15,2013-02-19 23:00:00,
2013-02-19 16:01:00,33.9,-7.7,22.34,NE,41,5.0,21.0,16,0.00,,,0.00,Wunderground v.1.15,2013-02-19 23:01:00,
2013-02-19 16:03:00,33.5,-8.0,22.34,NNW,334,5.0,5.0,16,0.00,,,0.00,Wunderground v.1.15,2013-02-19 23:03:00,
2013-02-19 16:06:00,33.2,-8.2,22.34,NNW,347,4.0,6.0,16,0.00,,,0.00,Wunderground v.1.15,2013-02-19 23:06:00,
2013-02-19 16:08:00,32.9,-8.5,22.34,North,4,4.0,7.0,16,0.00,,,0.00,Wunderground v.1.15,2013-02-19 23:08:00,
2013-02-19 16:10:00,32.6,-8.7,22.35,North,349,4.0,21.0,16,0.00,,,0.00,Wunderground v.1.15,2013-02-19 23:10:00,
2013-02-19 16:16:00,32.3,-7.7,22.35,East,84,4.0,5.0,17,0.00,,,0.00,Wunderground v.1.15,2013-02-19 23:16:00,
2013-02-19 16:20:00,32.8,-4.0,22.35,SSE,155,3.0,21.0,20,0.00,,,0.00,Wunderground v.1.15,2013-02-19 23:20:00,
2013-02-19 16:24:00,33.7,-3.2,22.35,ESE,107,3.0,3.0,20,0.00,,,0.00,Wunderground v.1.15,2013-02-19 23:24:00,
2013-02-19 16:26:00,33.5,-5.6,22.35,ENE,63,3.0,21.0,18,0.00,,,0.00,Wunderground v.1.15,2013-02-19 23:26:00,
2013-02-19 16:29:00,33.7,-5.4,22.35,ESE,119,3.0,21.0,18,0.00,,,0.00,Wunderground v.1.15,2013-02-19 23:29:00,
2013-02-19 16:36:00,33.7,-5.4,22.35,NE,44,3.0,4.0,18,0.00,,,0.00,Wunderground v.1.15,2013-02-19 23:36:00,
2013-02-19 16:38:00,33.5,-5.6,22.35,ESE,102,3.0,21.0,18,0.00,,,0.00,Wunderground v.1.15,2013-02-19 23:38:00,
2013-02-19 16:40:00,33.1,-5.9,22.34,North,6,3.0,21.0,18,0.00,,,0.00,Wunderground v.1.15,2013-02-19 23:40:00,
2013-02-19 16:46:00,32.4,-5.4,22.34,ENE,60,4.0,21.0,19,0.00,,,0.00,Wunderground v.1.15,2013-02-19 23:46:00,
2013-02-19 16:52:00,32.0,-4.6,22.35,NW,326,3.0,21.0,20,0.00,,,0.00,Wunderground v.1.15,2013-02-19 23:52:00,
2013-02-19 16:55:00,31.5,-4.0,22.35,ESE,122,4.0,21.0,21,0.00,,,0.00,Wunderground v.1.15,2013-02-19 23:55:00,
2013-02-19 17:00:00,31.3,-3.2,22.35,SSW,211,3.0,21.0,22,0.00,,,0.00,Wunderground v.1.15,2013-02-20 00:00:00,
2013-02-19 17:02:00,31.2,-3.3,22.35,NNE,26,3.0,21.0,22,0.00,,,0.00,Wunderground v.1.15,2013-02-20 00:02:00,
2013-02-19 17:04:00,31.1,-3.4,22.35,SE,131,2.0,21.0,22,0.00,,,0.00,Wunderground v.1.15,2013-02-20 00:04:00,
2013-02-19 17:08:00,30.8,-3.6,22.35,ESE,123,2.0,21.0,22,0.00,,,0.00,Wunderground v.1.15,2013-02-20 00:08:00,
2013-02-19 17:12:00,30.5,-3.9,22.35,NE,44,2.0,21.0,22,0.00,,,0.00,Wunderground v.1.15,2013-02-20 00:12:00,
2013-02-19 17:13:00,30.3,-3.1,22.35,North,6,2.0,2.0,23,0.00,,,0.00,Wunderground v.1.15,2013-02-20 00:13:00,
2013-02-19 17:17:00,30.0,-3.4,22.35,ESE,122,1.0,21.0,23,0.00,,,0.00,Wunderground v.1.15,2013-02-20 00:17:00,
2013-02-19 17:20:00,30.0,-3.4,22.35,NE,36,1.0,21.0,23,0.00,,,0.00,Wunderground v.1.15,2013-02-20 00:20:00,
2013-02-19 17:26:00,29.6,-2.0,22.35,South,180,1.0,2.0,25,0.00,,,0.00,Wunderground v.1.15,2013-02-20 00:26:00,
2013-02-19 17:28:00,29.5,-2.1,22.35,SSW,195,1.0,21.0,25,0.00,,,0.00,Wunderground v.1.15,2013-02-20 00:28:00,
2013-02-19 17:30:00,29.3,-2.2,22.35,SSW,204,1.0,21.0,25,0.00,,,0.00,Wunderground v.1.15,2013-02-20 00:30:00,
2013-02-19 17:34:00,29.1,-2.4,22.35,SSE,150,1.0,21.0,25,0.00,,,0.00,Wunderground v.1.15,2013-02-20 00:34:00,
2013-02-19 17:35:00,29.0,-1.7,22.35,SSE,149,1.0,21.0,26,0.00,,,0.00,Wunderground v.1.15,2013-02-20 00:35:00,
2013-02-19 17:40:00,28.6,-1.2,22.35,South,183,1.0,21.0,27,0.00,,,0.00,Wunderground v.1.15,2013-02-20 00:40:00,
2013-02-19 17:42:00,28.6,-0.4,22.35,SSW,203,1.0,21.0,28,0.00,,,0.00,Wunderground v.1.15,2013-02-20 00:42:00,
2013-02-19 17:48:00,28.2,-0.8,22.35,NE,44,1.0,21.0,28,0.00,,,0.00,Wunderground v.1.15,2013-02-20 00:48:00,
2013-02-19 17:50:00,28.1,-0.1,22.35,North,349,1.0,21.0,29,0.00,,,0.00,Wunderground v.1.15,2013-02-20 00:50:00,
2013-02-19 17:52:00,28.0,-0.2,22.35,East,96,1.0,21.0,29,0.00,,,0.00,Wunderground v.1.15,2013-02-20 00:52:00,
2013-02-19 17:54:00,27.9,-0.3,22.35,NNE,25,1.0,1.0,29,0.00,,,0.00,Wunderground v.1.15,2013-02-20 00:54:00,
2013-02-19 17:58:00,27.6,0.2,22.35,NNE,25,1.0,21.0,30,0.00,,,0.00,Wunderground v.1.15,2013-02-20 00:58:00,
2013-02-19 18:00:00,27.4,0.0,22.35,NNE,20,0.0,21.0,30,0.00,,,0.00,Wunderground v.1.15,2013-02-20 01:00:00,
2013-02-19 18:01:00,27.4,0.0,22.35,NNE,22,0.0,21.0,30,0.00,,,0.00,Wunderground v.1.15,2013-02-20 01:01:00,
2013-02-19 18:03:00,27.2,0.5,22.35,WSW,243,0.0,21.0,31,0.00,,,0.00,Wunderground v.1.15,2013-02-20 01:03:00,
2013-02-19 18:06:00,27.1,0.4,22.35,North,6,0.0,21.0,31,0.00,,,0.00,Wunderground v.1.15,2013-02-20 01:06:00,
2013-02-19 18:10:00,27.0,1.0,22.35,ESE,110,0.0,21.0,32,0.00,,,0.00,Wunderground v.1.15,2013-02-20 01:10:00,
2013-02-19 18:12:00,26.9,0.9,22.35,East,95,1.0,21.0,32,0.00,,,0.00,Wunderground v.1.15,2013-02-20 01:12:00,
2013-02-19 18:16:00,26.7,1.4,22.35,SSE,155,1.0,21.0,33,0.00,,,0.00,Wunderground v.1.15,2013-02-20 01:16:00,
2013-02-19 18:20:00,26.7,1.4,22.35,West,262,1.0,21.0,33,0.00,,,0.00,Wunderground v.1.15,2013-02-20 01:20:00,
2013-02-19 18:22:00,26.7,1.4,22.35,West,261,1.0,21.0,33,0.00,,,0.00,Wunderground v.1.15,2013-02-20 01:22:00,
2013-02-19 18:28:00,26.6,2.0,22.35,ENE,61,0.0,21.0,34,0.00,,,0.00,Wunderground v.1.15,2013-02-20 01:28:00,
2013-02-19 18:30:00,26.7,1.4,22.35,NE,53,0.0,21.0,33,0.00,,,0.00,Wunderground v.1.15,2013-02-20 01:30:00,
2013-02-19 18:34:00,26.8,2.1,22.35,NE,46,0.0,21.0,34,0.00,,,0.00,Wunderground v.1.15,2013-02-20 01:34:00,
2013-02-19 18:40:00,26.6,1.3,22.35,NE,46,1.0,21.0,33,0.00,,,0.00,Wunderground v.1.15,2013-02-20 01:40:00,
2013-02-19 18:42:00,26.5,1.2,22.35,NE,46,0.0,21.0,33,0.00,,,0.00,Wunderground v.1.15,2013-02-20 01:42:00,
2013-02-19 18:46:00,26.3,1.0,22.36,NE,46,0.0,21.0,33,0.00,,,0.00,Wunderground v.1.15,2013-02-20 01:46:00,
2013-02-19 18:49:00,26.1,0.9,22.36,NE,46,0.0,21.0,33,0.00,,,0.00,Wunderground v.1.15,2013-02-20 01:49:00,
2013-02-19 18:51:00,26.0,0.8,22.36,NE,46,0.0,21.0,33,0.00,,,0.00,Wunderground v.1.15,2013-02-20 01:51:00,
2013-02-19 18:58:00,25.7,-0.1,22.35,NE,46,0.0,21.0,32,0.00,,,0.00,Wunderground v.1.15,2013-02-20 01:58:00,
2013-02-19 19:00:00,25.6,0.4,22.35,NE,46,0.0,21.0,33,0.00,,,0.00,Wunderground v.1.15,2013-02-20 02:00:00,
2013-02-19 19:06:00,25.4,0.2,22.35,NE,46,0.0,21.0,33,0.00,,,0.00,Wunderground v.1.15,2013-02-20 02:06:00,
2013-02-19 19:08:00,25.4,0.9,22.35,NE,46,0.0,21.0,34,0.00,,,0.00,Wunderground v.1.15,2013-02-20 02:08:00,
2013-02-19 19:12:00,25.3,0.8,22.35,NE,46,0.0,21.0,34,0.00,,,0.00,Wunderground v.1.15,2013-02-20 02:12:00,
2013-02-19 19:13:00,25.2,0.7,22.35,NE,46,0.0,21.0,34,0.00,,,0.00,Wunderground v.1.15,2013-02-20 02:13:00,
2013-02-19 19:15:00,25.1,0.0,22.35,NE,46,0.0,21.0,33,0.00,,,0.00,Wunderground v.1.15,2013-02-20 02:15:00,
2013-02-19 19:17:00,25.0,0.5,22.35,NE,46,0.0,21.0,34,0.00,,,0.00,Wunderground v.1.15,2013-02-20 02:17:00,
2013-02-19 19:22:00,24.8,1.0,22.35,NE,46,0.0,21.0,35,0.00,,,0.00,Wunderground v.1.15,2013-02-20 02:22:00,
2013-02-19 19:28:00,24.6,0.8,22.35,NE,46,0.0,21.0,35,0.00,,,0.00,Wunderground v.1.15,2013-02-20 02:28:00,
2013-02-19 19:32:00,24.3,-0.1,22.35,NE,46,0.0,21.0,34,0.00,,,0.00,Wunderground v.1.15,2013-02-20 02:32:00,
2013-02-19 19:34:00,24.2,0.4,22.35,NE,46,0.0,21.0,35,0.00,,,0.00,Wunderground v.1.15,2013-02-20 02:34:00,
2013-02-19 19:36:00,24.1,1.0,22.35,NE,46,0.0,21.0,36,0.00,,,0.00,Wunderground v.1.15,2013-02-20 02:36:00,
2013-02-19 19:38:00,24.0,0.3,22.35,NE,46,0.0,21.0,35,0.00,,,0.00,Wunderground v.1.15,2013-02-20 02:38:00,
2013-02-19 19:44:00,23.9,0.8,22.34,NNW,346,0.0,21.0,36,0.00,,,0.00,Wunderground v.1.15,2013-02-20 02:44:00,
2013-02-19 19:46:00,23.8,0.7,22.35,NNW,345,0.0,21.0,36,0.00,,,0.00,Wunderground v.1.15,2013-02-20 02:46:00,
2013-02-19 19:50:00,23.5,-0.2,22.34,NNW,346,0.0,21.0,35,0.00,,,0.00,Wunderground v.1.15,2013-02-20 02:50:00,
2013-02-19 19:56:00,23.3,0.2,22.34,NNW,346,0.0,21.0,36,0.00,,,0.00,Wunderground v.1.15,2013-02-20 02:56:00,
2013-02-19 19:58:00,23.2,0.1,22.34,NNW,346,0.0,21.0,36,0.00,,,0.00,Wunderground v.1.15,2013-02-20 02:58:00,
2013-02-19 20:04:00,22.9,-0.1,22.34,WSW,253,0.0,21.0,36,0.00,,,0.00,Wunderground v.1.15,2013-02-20 03:04:00,
2013-02-19 20:05:00,22.7,0.3,22.34,WSW,253,0.0,21.0,37,0.00,,,0.00,Wunderground v.1.15,2013-02-20 03:05:00,
2013-02-19 20:07:00,22.5,-0.5,22.34,WSW,253,0.0,21.0,36,0.00,,,0.00,Wunderground v.1.15,2013-02-20 03:07:00,
2013-02-19 20:12:00,22.4,0.0,22.34,WSW,253,0.0,21.0,37,0.00,,,0.00,Wunderground v.1.15,2013-02-20 03:12:00,
2013-02-19 20:14:00,22.4,0.6,22.34,WSW,253,0.0,21.0,38,0.00,,,0.00,Wunderground v.1.15,2013-02-20 03:14:00,
2013-02-19 20:16:00,22.4,0.0,22.34,WSW,254,0.0,21.0,37,0.00,,,0.00,Wunderground v.1.15,2013-02-20 03:16:00,
2013-02-19 20:20:00,22.3,0.5,22.34,WSW,253,0.0,21.0,38,0.00,,,0.00,Wunderground v.1.15,2013-02-20 03:20:00,
2013-02-19 20:22:00,22.2,0.4,22.34,WSW,254,0.0,21.0,38,0.00,,,0.00,Wunderground v.1.15,2013-02-20 03:22:00,
2013-02-19 20:26:00,22.0,0.2,22.34,WSW,253,0.0,21.0,38,0.00,,,0.00,Wunderground v.1.15,2013-02-20 03:26:00,
2013-02-19 20:32:00,21.8,0.6,22.34,WSW,253,0.0,21.0,39,0.00,,,0.00,Wunderground v.1.15,2013-02-20 03:32:00,
2013-02-19 20:36:00,21.4,0.2,22.34,WSW,253,0.0,21.0,39,0.00,,,0.00,Wunderground v.1.15,2013-02-20 03:36:00,
2013-02-19 20:38:00,21.3,0.7,22.34,WSW,253,0.0,21.0,40,0.00,,,0.00,Wunderground v.1.15,2013-02-20 03:38:00,
2013-02-19 20:42:00,21.1,0.5,22.34,WSW,253,0.0,21.0,40,0.00,,,0.00,Wunderground v.1.15,2013-02-20 03:42:00,
2013-02-19 20:48:00,20.9,-0.2,22.34,WSW,253,0.0,21.0,39,0.00,,,0.00,Wunderground v.1.15,2013-02-20 03:48:00,
2013-02-19 20:50:00,20.8,0.2,22.34,WSW,253,0.0,21.0,40,0.00,,,0.00,Wunderground v.1.15,2013-02-20 03:50:00,
2013-02-19 20:53:00,20.5,0.0,22.33,WSW,253,0.0,21.0,40,0.00,,,0.00,Wunderground v.1.15,2013-02-20 03:53:00,
2013-02-19 20:58:00,20.4,0.4,22.34,WSW,253,0.0,21.0,41,0.00,,,0.00,Wunderground v.1.15,2013-02-20 03:58:00,
2013-02-19 21:00:00,20.4,0.4,22.34,WSW,253,0.0,21.0,41,0.00,,,0.00,Wunderground v.1.15,2013-02-20 04:00:00,
2013-02-19 21:06:00,20.2,0.2,22.34,WSW,253,0.0,21.0,41,0.00,,,0.00,Wunderground v.1.15,2013-02-20 04:06:00,
2013-02-19 21:08:00,20.2,0.2,22.33,WSW,253,0.0,21.0,41,0.00,,,0.00,Wunderground v.1.15,2013-02-20 04:08:00,
2013-02-19 21:12:00,20.0,0.0,22.33,WSW,253,0.0,21.0,41,0.00,,,0.00,Wunderground v.1.15,2013-02-20 04:12:00,
2013-02-19 21:14:00,19.9,-0.1,22.34,WSW,253,0.0,21.0,41,0.00,,,0.00,Wunderground v.1.15,2013-02-20 04:14:00,
2013-02-19 21:17:00,19.6,-0.3,22.34,WSW,253,0.0,21.0,41,0.00,,,0.00,Wunderground v.1.15,2013-02-20 04:17:00,
2013-02-19 21:20:00,19.5,0.6,22.34,WSW,254,0.0,21.0,43,0.00,,,0.00,Wunderground v.1.15,2013-02-20 04:20:00,
2013-02-19 21:21:00,19.4,0.5,22.34,WSW,253,0.0,21.0,43,0.00,,,0.00,Wunderground v.1.15,2013-02-20 04:21:00,
2013-02-19 21:24:00,19.4,0.5,22.34,WSW,253,0.0,21.0,43,0.00,,,0.00,Wunderground v.1.15,2013-02-20 04:24:00,
2013-02-19 21:28:00,19.4,0.5,22.34,WSW,253,0.0,21.0,43,0.00,,,0.00,Wunderground v.1.15,2013-02-20 04:28:00,
2013-02-19 21:32:00,19.3,0.4,22.34,WSW,253,0.0,21.0,43,0.00,,,0.00,Wunderground v.1.15,2013-02-20 04:32:00,
2013-02-19 21:34:00,19.3,0.4,22.34,WSW,253,0.0,21.0,43,0.00,,,0.00,Wunderground v.1.15,2013-02-20 04:34:00,
2013-02-19 21:36:00,19.3,0.4,22.33,WSW,253,0.0,21.0,43,0.00,,,0.00,Wunderground v.1.15,2013-02-20 04:36:00,
2013-02-19 21:40:00,19.2,0.3,22.33,WSW,253,0.0,21.0,43,0.00,,,0.00,Wunderground v.1.15,2013-02-20 04:40:00,
2013-02-19 21:42:00,19.2,0.3,22.33,WSW,253,0.0,21.0,43,0.00,,,0.00,Wunderground v.1.15,2013-02-20 04:42:00,
2013-02-19 21:48:00,19.2,1.8,22.33,WSW,254,0.0,21.0,46,0.00,,,0.00,Wunderground v.1.15,2013-02-20 04:48:00,
2013-02-19 21:54:00,19.4,2.9,22.32,WSW,253,0.0,21.0,48,0.00,,,0.00,Wunderground v.1.15,2013-02-20 04:54:00,
2013-02-19 21:58:00,19.3,2.8,22.32,WSW,253,0.0,21.0,48,0.00,,,0.00,Wunderground v.1.15,2013-02-20 04:58:00,
2013-02-19 22:00:00,19.3,1.9,22.32,SE,146,0.0,21.0,46,0.00,,,0.00,Wunderground v.1.15,2013-02-20 05:00:00,
2013-02-19 22:06:00,18.9,1.5,22.33,SE,146,0.0,21.0,46,0.00,,,0.00,Wunderground v.1.15,2013-02-20 05:06:00,
2013-02-19 22:08:00,18.8,0.9,22.32,SE,146,0.0,21.0,45,0.00,,,0.00,Wunderground v.1.15,2013-02-20 05:08:00,
2013-02-19 22:09:00,18.7,1.3,22.32,SE,146,0.0,21.0,46,0.00,,,0.00,Wunderground v.1.15,2013-02-20 05:09:00,
2013-02-19 22:16:00,18.2,1.3,22.32,SE,146,0.0,21.0,47,0.00,,,0.00,Wunderground v.1.15,2013-02-20 05:16:00,
2013-02-19 22:18:00,18.1,1.2,22.32,SE,146,0.0,21.0,47,0.00,,,0.00,Wunderground v.1.15,2013-02-20 05:18:00,
2013-02-19 22:24:00,17.9,1.9,22.32,SE,146,0.0,21.0,49,0.00,,,0.00,Wunderground v.1.15,2013-02-20 05:24:00,
2013-02-19 22:30:00,17.8,1.8,22.32,SE,146,0.0,21.0,49,0.00,,,0.00,Wunderground v.1.15,2013-02-20 05:30:00,
2013-02-19 22:32:00,17.7,2.2,22.32,SE,146,0.0,21.0,50,0.00,,,0.00,Wunderground v.1.15,2013-02-20 05:32:00,
2013-02-19 22:34:00,17.5,1.6,22.32,SE,146,0.0,21.0,49,0.00,,,0.00,Wunderground v.1.15,2013-02-20 05:34:00,
2013-02-19 22:35:00,17.5,2.0,22.32,SE,146,0.0,21.0,50,0.00,,,0.00,Wunderground v.1.15,2013-02-20 05:35:00,
2013-02-19 22:42:00,17.4,2.8,22.32,SE,146,0.0,21.0,52,0.00,,,0.00,Wunderground v.1.15,2013-02-20 05:42:00,
2013-02-19 22:46:00,17.4,2.3,22.32,SE,146,0.0,21.0,51,0.00,,,0.00,Wunderground v.1.15,2013-02-20 05:46:00,
2013-02-19 22:48:00,17.3,2.2,22.32,SE,146,0.0,21.0,51,0.00,,,0.00,Wunderground v.1.15,2013-02-20 05:48:00,
2013-02-19 22:52:00,17.1,2.1,22.31,SE,146,0.0,21.0,51,0.00,,,0.00,Wunderground v.1.15,2013-02-20 05:52:00,
2013-02-19 22:54:00,17.0,2.4,22.31,SSE,147,0.0,21.0,52,0.00,,,0.00,Wunderground v.1.15,2013-02-20 05:54:00,
2013-02-19 22:58:00,16.8,1.8,22.31,SE,146,0.0,21.0,51,0.00,,,0.00,Wunderground v.1.15,2013-02-20 05:58:00,
2013-02-19 23:04:00,16.5,2.7,22.31,SE,146,0.0,21.0,54,0.00,,,0.00,Wunderground v.1.15,2013-02-20 06:04:00,
2013-02-19 23:06:00,16.4,2.6,22.31,SE,146,0.0,21.0,54,0.00,,,0.00,Wunderground v.1.15,2013-02-20 06:06:00,
2013-02-19 23:10:00,16.3,2.5,22.30,SE,146,0.0,21.0,54,0.00,,,0.00,Wunderground v.1.15,2013-02-20 06:10:00,
2013-02-19 23:12:00,16.3,2.1,22.30,SE,146,0.0,21.0,53,0.00,,,0.00,Wunderground v.1.15,2013-02-20 06:12:00,
2013-02-19 23:16:00,16.0,1.4,22.30,SE,146,0.0,21.0,52,0.00,,,0.00,Wunderground v.1.15,2013-02-20 06:16:00,
2013-02-19 23:18:00,15.8,2.1,22.30,SE,146,0.0,21.0,54,0.00,,,0.00,Wunderground v.1.15,2013-02-20 06:18:00,
2013-02-19 23:24:00,15.3,1.6,22.30,SE,146,0.0,21.0,54,0.00,,,0.00,Wunderground v.1.15,2013-02-20 06:24:00,
2013-02-19 23:26:00,15.1,1.4,22.30,SE,146,0.0,21.0,54,0.00,,,0.00,Wunderground v.1.15,2013-02-20 06:26:00,
2013-02-19 23:29:00,15.1,2.2,22.30,SE,146,0.0,21.0,56,0.00,,,0.00,Wunderground v.1.15,2013-02-20 06:29:00,
2013-02-19 23:32:00,15.1,1.8,22.30,SE,146,0.0,21.0,55,0.00,,,0.00,Wunderground v.1.15,2013-02-20 06:32:00,
2013-02-19 23:34:00,15.2,2.3,22.30,SE,146,0.0,21.0,56,0.00,,,0.00,Wunderground v.1.15,2013-02-20 06:34:00,
2013-02-19 23:36:00,15.2,1.9,22.30,SE,143,0.0,21.0,55,0.00,,,0.00,Wunderground v.1.15,2013-02-20 06:36:00,
2013-02-19 23:42:00,15.1,1.8,22.30,SE,143,0.0,21.0,55,0.00,,,0.00,Wunderground v.1.15,2013-02-20 06:42:00,
2013-02-19 23:48:00,15.1,1.4,22.29,SE,143,0.0,21.0,54,0.00,,,0.00,Wunderground v.1.15,2013-02-20 06:48:00,
2013-02-19 23:50:00,14.8,1.1,22.29,WSW,256,0.0,21.0,54,0.00,,,0.00,Wunderground v.1.15,2013-02-20 06:50:00,
2013-02-19 23:52:00,14.5,1.2,22.29,WSW,256,0.0,21.0,55,0.00,,,0.00,Wunderground v.1.15,2013-02-20 06:52:00,
2013-02-19 23:54:00,14.4,1.2,22.29,WSW,256,0.0,21.0,55,0.00,,,0.00,Wunderground v.1.15,2013-02-20 06:54:00,